sensor_id;sensor_type;location;lat;lon;timestamp;P1;durP1;ratioP1;P2;durP2;ratioP2
74630;SDS011;63138;55.082;38.804;2023-04-25T00:02:15;11.20;;;5.60;;
74630;SDS011;63138;55.082;38.804;2023-04-25T00:04:41;9.98;;;5.72;;
74630;SDS011;63138;55.082;38.804;2023-04-25T00:07:57;10.52;;;5.75;;
74630;SDS011;63138;55.082;38.804;2023-04-25T00:10:24;10.32;;;6.07;;
74630;SDS011;63138;55.082;38.804;2023-04-25T00:16:09;11.70;;;5.37;;
74630;SDS011;63138;55.082;38.804;2023-04-25T00:18:38;11.18;;;5.35;;
74630;SDS011;63138;55.082;38.804;2023-04-25T00:21:05;8.93;;;5.47;;
74630;SDS011;63138;55.082;38.804;2023-04-25T00:23:31;11.70;;;5.70;;
74630;SDS011;63138;55.082;38.804;2023-04-25T00:25:57;12.30;;;5.40;;
74630;SDS011;63138;55.082;38.804;2023-04-25T00:28:23;14.57;;;5.50;;
74630;SDS011;63138;55.082;38.804;2023-04-25T00:31:15;9.57;;;5.70;;
74630;SDS011;63138;55.082;38.804;2023-04-25T00:33:42;10.00;;;5.43;;
74630;SDS011;63138;55.082;38.804;2023-04-25T00:36:08;9.85;;;5.88;;
74630;SDS011;63138;55.082;38.804;2023-04-25T00:38:35;10.88;;;5.15;;
74630;SDS011;63138;55.082;38.804;2023-04-25T00:41:05;8.37;;;5.10;;
74630;SDS011;63138;55.082;38.804;2023-04-25T00:43:31;18.17;;;6.20;;
74630;SDS011;63138;55.082;38.804;2023-04-25T00:45:59;9.82;;;5.03;;
74630;SDS011;63138;55.082;38.804;2023-04-25T00:48:26;6.88;;;5.00;;
74630;SDS011;63138;55.082;38.804;2023-04-25T00:50:53;9.63;;;4.20;;
74630;SDS011;63138;55.082;38.804;2023-04-25T00:53:21;11.10;;;5.47;;
74630;SDS011;63138;55.082;38.804;2023-04-25T00:55:49;12.10;;;5.60;;
74630;SDS011;63138;55.082;38.804;2023-04-25T00:58:17;9.40;;;5.10;;
74630;SDS011;63138;55.082;38.804;2023-04-25T01:00:46;12.20;;;5.50;;
74630;SDS011;63138;55.082;38.804;2023-04-25T01:03:16;16.92;;;6.20;;
74630;SDS011;63138;55.082;38.804;2023-04-25T01:05:43;23.77;;;6.27;;
74630;SDS011;63138;55.082;38.804;2023-04-25T01:08:09;12.77;;;5.97;;
74630;SDS011;63138;55.082;38.804;2023-04-25T01:10:35;14.50;;;6.55;;
74630;SDS011;63138;55.082;38.804;2023-04-25T01:13:02;7.97;;;5.75;;
74630;SDS011;63138;55.082;38.804;2023-04-25T01:15:28;12.10;;;6.28;;
74630;SDS011;63138;55.082;38.804;2023-04-25T01:17:56;10.97;;;6.50;;
74630;SDS011;63138;55.082;38.804;2023-04-25T01:20:24;15.13;;;6.72;;
74630;SDS011;63138;55.082;38.804;2023-04-25T01:22:52;11.40;;;5.95;;
74630;SDS011;63138;55.082;38.804;2023-04-25T01:25:18;9.13;;;5.35;;
74630;SDS011;63138;55.082;38.804;2023-04-25T01:27:47;8.45;;;4.38;;
74630;SDS011;63138;55.082;38.804;2023-04-25T01:30:17;9.60;;;4.50;;
74630;SDS011;63138;55.082;38.804;2023-04-25T01:32:43;12.13;;;6.75;;
74630;SDS011;63138;55.082;38.804;2023-04-25T01:35:10;12.55;;;5.63;;
74630;SDS011;63138;55.082;38.804;2023-04-25T01:37:40;12.55;;;5.50;;
74630;SDS011;63138;55.082;38.804;2023-04-25T01:40:10;11.18;;;5.55;;
74630;SDS011;63138;55.082;38.804;2023-04-25T01:42:40;12.13;;;5.07;;
74630;SDS011;63138;55.082;38.804;2023-04-25T01:45:08;10.88;;;5.63;;
74630;SDS011;63138;55.082;38.804;2023-04-25T01:47:36;11.30;;;5.32;;
74630;SDS011;63138;55.082;38.804;2023-04-25T01:50:02;6.65;;;4.50;;
74630;SDS011;63138;55.082;38.804;2023-04-25T01:52:31;8.95;;;5.25;;
74630;SDS011;63138;55.082;38.804;2023-04-25T01:54:59;9.00;;;4.80;;
74630;SDS011;63138;55.082;38.804;2023-04-25T01:57:30;13.15;;;6.28;;
74630;SDS011;63138;55.082;38.804;2023-04-25T02:00:01;9.95;;;5.30;;
74630;SDS011;63138;55.082;38.804;2023-04-25T02:02:59;8.85;;;5.60;;
74630;SDS011;63138;55.082;38.804;2023-04-25T02:08:23;15.07;;;5.47;;
74630;SDS011;63138;55.082;38.804;2023-04-25T02:10:53;8.43;;;4.55;;
74630;SDS011;63138;55.082;38.804;2023-04-25T02:13:20;11.02;;;5.90;;
74630;SDS011;63138;55.082;38.804;2023-04-25T02:16:18;10.02;;;5.30;;
74630;SDS011;63138;55.082;38.804;2023-04-25T02:19:10;9.43;;;5.63;;
74630;SDS011;63138;55.082;38.804;2023-04-25T02:21:36;9.38;;;5.18;;
74630;SDS011;63138;55.082;38.804;2023-04-25T02:24:03;13.55;;;6.90;;
74630;SDS011;63138;55.082;38.804;2023-04-25T02:26:29;12.60;;;5.38;;
74630;SDS011;63138;55.082;38.804;2023-04-25T02:28:56;10.43;;;6.07;;
74630;SDS011;63138;55.082;38.804;2023-04-25T02:31:23;9.20;;;5.27;;
74630;SDS011;63138;55.082;38.804;2023-04-25T02:33:50;15.80;;;7.28;;
74630;SDS011;63138;55.082;38.804;2023-04-25T02:36:16;13.35;;;7.93;;
74630;SDS011;63138;55.082;38.804;2023-04-25T02:38:42;14.38;;;6.90;;
74630;SDS011;63138;55.082;38.804;2023-04-25T02:41:08;13.90;;;8.23;;
74630;SDS011;63138;55.082;38.804;2023-04-25T02:43:35;10.47;;;6.30;;
74630;SDS011;63138;55.082;38.804;2023-04-25T02:46:26;13.45;;;6.75;;
74630;SDS011;63138;55.082;38.804;2023-04-25T02:48:52;14.45;;;6.22;;
74630;SDS011;63138;55.082;38.804;2023-04-25T02:51:18;10.98;;;6.75;;
74630;SDS011;63138;55.082;38.804;2023-04-25T02:53:45;16.17;;;7.60;;
74630;SDS011;63138;55.082;38.804;2023-04-25T02:56:12;14.50;;;6.90;;
74630;SDS011;63138;55.082;38.804;2023-04-25T02:58:38;13.23;;;7.50;;
74630;SDS011;63138;55.082;38.804;2023-04-25T03:01:04;13.75;;;6.82;;
74630;SDS011;63138;55.082;38.804;2023-04-25T03:03:31;11.30;;;7.10;;
74630;SDS011;63138;55.082;38.804;2023-04-25T03:05:57;11.68;;;6.18;;
74630;SDS011;63138;55.082;38.804;2023-04-25T03:08:29;12.40;;;6.40;;
74630;SDS011;63138;55.082;38.804;2023-04-25T03:10:59;14.55;;;6.28;;
74630;SDS011;63138;55.082;38.804;2023-04-25T03:13:26;17.58;;;7.90;;
74630;SDS011;63138;55.082;38.804;2023-04-25T03:15:53;13.13;;;6.90;;
74630;SDS011;63138;55.082;38.804;2023-04-25T03:18:19;13.95;;;7.68;;
74630;SDS011;63138;55.082;38.804;2023-04-25T03:20:45;15.43;;;6.80;;
74630;SDS011;63138;55.082;38.804;2023-04-25T03:23:12;11.20;;;6.45;;
74630;SDS011;63138;55.082;38.804;2023-04-25T03:25:43;15.77;;;5.80;;
74630;SDS011;63138;55.082;38.804;2023-04-25T03:28:34;14.27;;;7.50;;
74630;SDS011;63138;55.082;38.804;2023-04-25T03:31:01;15.40;;;6.40;;
74630;SDS011;63138;55.082;38.804;2023-04-25T03:33:27;15.07;;;6.53;;
74630;SDS011;63138;55.082;38.804;2023-04-25T03:35:53;13.65;;;7.93;;
74630;SDS011;63138;55.082;38.804;2023-04-25T03:38:19;13.37;;;7.43;;
74630;SDS011;63138;55.082;38.804;2023-04-25T03:40:46;12.45;;;6.57;;
74630;SDS011;63138;55.082;38.804;2023-04-25T03:43:11;10.70;;;6.55;;
74630;SDS011;63138;55.082;38.804;2023-04-25T03:45:43;17.48;;;7.10;;
74630;SDS011;63138;55.082;38.804;2023-04-25T03:48:09;15.93;;;5.70;;
74630;SDS011;63138;55.082;38.804;2023-04-25T03:50:35;17.77;;;7.22;;
74630;SDS011;63138;55.082;38.804;2023-04-25T03:53:02;13.20;;;6.90;;
74630;SDS011;63138;55.082;38.804;2023-04-25T03:55:34;15.68;;;7.38;;
74630;SDS011;63138;55.082;38.804;2023-04-25T03:58:07;8.60;;;5.97;;
74630;SDS011;63138;55.082;38.804;2023-04-25T04:00:35;13.27;;;7.50;;
74630;SDS011;63138;55.082;38.804;2023-04-25T04:03:02;14.90;;;6.85;;
74630;SDS011;63138;55.082;38.804;2023-04-25T04:05:28;16.23;;;7.20;;
74630;SDS011;63138;55.082;38.804;2023-04-25T04:07:56;15.00;;;6.80;;
74630;SDS011;63138;55.082;38.804;2023-04-25T04:10:24;11.77;;;5.27;;
74630;SDS011;63138;55.082;38.804;2023-04-25T04:12:51;15.45;;;7.00;;
74630;SDS011;63138;55.082;38.804;2023-04-25T04:18:02;14.70;;;6.85;;
74630;SDS011;63138;55.082;38.804;2023-04-25T04:20:29;12.93;;;6.97;;
74630;SDS011;63138;55.082;38.804;2023-04-25T04:22:57;11.87;;;6.70;;
74630;SDS011;63138;55.082;38.804;2023-04-25T04:25:24;13.48;;;6.88;;
74630;SDS011;63138;55.082;38.804;2023-04-25T04:28:08;10.63;;;6.50;;
74630;SDS011;63138;55.082;38.804;2023-04-25T04:30:58;12.15;;;6.47;;
74630;SDS011;63138;55.082;38.804;2023-04-25T04:33:25;14.32;;;6.85;;
74630;SDS011;63138;55.082;38.804;2023-04-25T04:35:57;13.03;;;6.63;;
74630;SDS011;63138;55.082;38.804;2023-04-25T04:38:24;11.23;;;6.00;;
74630;SDS011;63138;55.082;38.804;2023-04-25T04:40:53;9.95;;;7.22;;
74630;SDS011;63138;55.082;38.804;2023-04-25T04:43:37;11.95;;;5.55;;
74630;SDS011;63138;55.082;38.804;2023-04-25T04:46:27;13.00;;;6.45;;
74630;SDS011;63138;55.082;38.804;2023-04-25T04:52:19;13.40;;;6.70;;
74630;SDS011;63138;55.082;38.804;2023-04-25T04:54:50;21.67;;;7.57;;
74630;SDS011;63138;55.082;38.804;2023-04-25T04:57:34;16.90;;;7.65;;
74630;SDS011;63138;55.082;38.804;2023-04-25T05:00:21;9.63;;;6.00;;
74630;SDS011;63138;55.082;38.804;2023-04-25T05:03:17;16.27;;;7.27;;
74630;SDS011;63138;55.082;38.804;2023-04-25T05:06:14;15.50;;;7.63;;
74630;SDS011;63138;55.082;38.804;2023-04-25T05:12:46;16.75;;;9.38;;
74630;SDS011;63138;55.082;38.804;2023-04-25T05:15:31;15.07;;;8.48;;
74630;SDS011;63138;55.082;38.804;2023-04-25T05:18:17;18.53;;;8.87;;
74630;SDS011;63138;55.082;38.804;2023-04-25T05:21:01;16.05;;;8.60;;
74630;SDS011;63138;55.082;38.804;2023-04-25T05:24:02;15.38;;;9.40;;
74630;SDS011;63138;55.082;38.804;2023-04-25T05:26:51;14.25;;;9.30;;
74630;SDS011;63138;55.082;38.804;2023-04-25T05:29:32;11.90;;;8.75;;
74630;SDS011;63138;55.082;38.804;2023-04-25T05:32:17;14.00;;;8.30;;
74630;SDS011;63138;55.082;38.804;2023-04-25T05:34:45;15.00;;;8.15;;
74630;SDS011;63138;55.082;38.804;2023-04-25T05:37:46;13.50;;;8.27;;
74630;SDS011;63138;55.082;38.804;2023-04-25T05:40:14;14.65;;;7.88;;
74630;SDS011;63138;55.082;38.804;2023-04-25T05:42:40;16.30;;;10.10;;
74630;SDS011;63138;55.082;38.804;2023-04-25T05:45:22;15.23;;;8.43;;
74630;SDS011;63138;55.082;38.804;2023-04-25T05:48:05;17.58;;;8.20;;
74630;SDS011;63138;55.082;38.804;2023-04-25T05:50:41;11.73;;;8.48;;
74630;SDS011;63138;55.082;38.804;2023-04-25T05:53:20;11.02;;;7.18;;
74630;SDS011;63138;55.082;38.804;2023-04-25T05:55:55;8.43;;;5.20;;
74630;SDS011;63138;55.082;38.804;2023-04-25T06:01:19;7.75;;;5.60;;
74630;SDS011;63138;55.082;38.804;2023-04-25T06:03:46;7.35;;;4.43;;
74630;SDS011;63138;55.082;38.804;2023-04-25T06:06:12;7.75;;;5.32;;
74630;SDS011;63138;55.082;38.804;2023-04-25T06:08:58;6.47;;;4.97;;
74630;SDS011;63138;55.082;38.804;2023-04-25T06:11:24;7.57;;;5.80;;
74630;SDS011;63138;55.082;38.804;2023-04-25T06:14:09;6.63;;;5.32;;
74630;SDS011;63138;55.082;38.804;2023-04-25T06:16:39;7.25;;;5.35;;
74630;SDS011;63138;55.082;38.804;2023-04-25T06:19:05;9.38;;;5.35;;
74630;SDS011;63138;55.082;38.804;2023-04-25T06:21:32;6.82;;;5.97;;
74630;SDS011;63138;55.082;38.804;2023-04-25T06:23:59;7.47;;;5.50;;
74630;SDS011;63138;55.082;38.804;2023-04-25T06:26:25;9.05;;;5.97;;
74630;SDS011;63138;55.082;38.804;2023-04-25T06:28:51;7.90;;;5.53;;
74630;SDS011;63138;55.082;38.804;2023-04-25T06:31:44;10.38;;;5.78;;
74630;SDS011;63138;55.082;38.804;2023-04-25T06:34:28;8.95;;;4.88;;
74630;SDS011;63138;55.082;38.804;2023-04-25T06:36:55;10.53;;;6.33;;
74630;SDS011;63138;55.082;38.804;2023-04-25T06:39:21;11.50;;;5.93;;
74630;SDS011;63138;55.082;38.804;2023-04-25T06:42:06;8.93;;;5.75;;
74630;SDS011;63138;55.082;38.804;2023-04-25T06:44:59;7.85;;;5.85;;
74630;SDS011;63138;55.082;38.804;2023-04-25T06:50:22;8.02;;;5.75;;
74630;SDS011;63138;55.082;38.804;2023-04-25T06:52:48;8.88;;;5.60;;
74630;SDS011;63138;55.082;38.804;2023-04-25T06:55:14;6.93;;;5.60;;
74630;SDS011;63138;55.082;38.804;2023-04-25T06:58:00;7.32;;;5.70;;
74630;SDS011;63138;55.082;38.804;2023-04-25T07:00:45;9.57;;;5.67;;
74630;SDS011;63138;55.082;38.804;2023-04-25T07:03:11;9.75;;;6.10;;
74630;SDS011;63138;55.082;38.804;2023-04-25T07:08:56;7.13;;;5.72;;
74630;SDS011;63138;55.082;38.804;2023-04-25T07:11:24;5.88;;;5.00;;
74630;SDS011;63138;55.082;38.804;2023-04-25T07:13:50;7.77;;;5.50;;
74630;SDS011;63138;55.082;38.804;2023-04-25T07:16:16;9.43;;;5.40;;
74630;SDS011;63138;55.082;38.804;2023-04-25T07:18:42;8.32;;;5.18;;
74630;SDS011;63138;55.082;38.804;2023-04-25T07:21:09;5.65;;;5.13;;
74630;SDS011;63138;55.082;38.804;2023-04-25T07:23:36;6.70;;;5.53;;
74630;SDS011;63138;55.082;38.804;2023-04-25T07:26:09;8.93;;;5.30;;
74630;SDS011;63138;55.082;38.804;2023-04-25T07:28:39;6.22;;;5.50;;
74630;SDS011;63138;55.082;38.804;2023-04-25T07:31:06;6.10;;;4.43;;
74630;SDS011;63138;55.082;38.804;2023-04-25T07:33:31;8.67;;;5.93;;
74630;SDS011;63138;55.082;38.804;2023-04-25T07:35:58;7.60;;;5.30;;
74630;SDS011;63138;55.082;38.804;2023-04-25T07:38:25;6.05;;;5.45;;
74630;SDS011;63138;55.082;38.804;2023-04-25T07:40:51;6.95;;;5.70;;
74630;SDS011;63138;55.082;38.804;2023-04-25T07:43:17;10.03;;;5.67;;
74630;SDS011;63138;55.082;38.804;2023-04-25T07:46:03;11.15;;;6.30;;
74630;SDS011;63138;55.082;38.804;2023-04-25T07:48:34;8.15;;;4.70;;
74630;SDS011;63138;55.082;38.804;2023-04-25T07:51:01;8.50;;;6.47;;
74630;SDS011;63138;55.082;38.804;2023-04-25T07:53:29;7.23;;;4.57;;
74630;SDS011;63138;55.082;38.804;2023-04-25T07:56:00;8.48;;;6.65;;
74630;SDS011;63138;55.082;38.804;2023-04-25T07:58:32;9.60;;;6.85;;
74630;SDS011;63138;55.082;38.804;2023-04-25T08:01:01;8.50;;;6.60;;
74630;SDS011;63138;55.082;38.804;2023-04-25T08:03:47;10.32;;;4.88;;
74630;SDS011;63138;55.082;38.804;2023-04-25T08:06:20;8.90;;;6.03;;
74630;SDS011;63138;55.082;38.804;2023-04-25T08:08:59;6.82;;;4.40;;
74630;SDS011;63138;55.082;38.804;2023-04-25T08:11:43;8.48;;;4.90;;
74630;SDS011;63138;55.082;38.804;2023-04-25T08:14:13;7.97;;;3.90;;
74630;SDS011;63138;55.082;38.804;2023-04-25T08:16:41;11.27;;;4.75;;
74630;SDS011;63138;55.082;38.804;2023-04-25T08:19:09;8.77;;;6.87;;
74630;SDS011;63138;55.082;38.804;2023-04-25T08:21:36;7.45;;;6.07;;
74630;SDS011;63138;55.082;38.804;2023-04-25T08:24:07;6.78;;;4.82;;
74630;SDS011;63138;55.082;38.804;2023-04-25T08:26:36;6.07;;;4.95;;
74630;SDS011;63138;55.082;38.804;2023-04-25T08:29:04;8.00;;;7.20;;
74630;SDS011;63138;55.082;38.804;2023-04-25T08:31:32;8.13;;;6.00;;
74630;SDS011;63138;55.082;38.804;2023-04-25T08:34:01;6.85;;;5.63;;
74630;SDS011;63138;55.082;38.804;2023-04-25T08:36:33;8.63;;;6.80;;
74630;SDS011;63138;55.082;38.804;2023-04-25T08:39:00;9.05;;;6.57;;
74630;SDS011;63138;55.082;38.804;2023-04-25T08:41:26;8.30;;;5.45;;
74630;SDS011;63138;55.082;38.804;2023-04-25T08:46:46;10.82;;;5.43;;
74630;SDS011;63138;55.082;38.804;2023-04-25T08:49:24;9.20;;;7.18;;
74630;SDS011;63138;55.082;38.804;2023-04-25T08:51:51;9.40;;;5.43;;
74630;SDS011;63138;55.082;38.804;2023-04-25T08:54:21;10.27;;;5.78;;
74630;SDS011;63138;55.082;38.804;2023-04-25T08:56:52;7.50;;;4.93;;
74630;SDS011;63138;55.082;38.804;2023-04-25T08:59:19;7.68;;;4.85;;
74630;SDS011;63138;55.082;38.804;2023-04-25T09:01:46;6.47;;;5.72;;
74630;SDS011;63138;55.082;38.804;2023-04-25T09:04:14;7.82;;;5.55;;
74630;SDS011;63138;55.082;38.804;2023-04-25T09:06:41;7.88;;;5.28;;
74630;SDS011;63138;55.082;38.804;2023-04-25T09:09:07;10.13;;;5.83;;
74630;SDS011;63138;55.082;38.804;2023-04-25T09:11:36;7.40;;;5.95;;
74630;SDS011;63138;55.082;38.804;2023-04-25T09:14:20;7.20;;;5.57;;
74630;SDS011;63138;55.082;38.804;2023-04-25T09:17:17;7.22;;;4.90;;
74630;SDS011;63138;55.082;38.804;2023-04-25T09:19:49;8.70;;;5.63;;
74630;SDS011;63138;55.082;38.804;2023-04-25T09:22:31;9.93;;;5.43;;
74630;SDS011;63138;55.082;38.804;2023-04-25T09:24:57;7.90;;;6.03;;
74630;SDS011;63138;55.082;38.804;2023-04-25T09:27:29;6.55;;;5.53;;
74630;SDS011;63138;55.082;38.804;2023-04-25T09:30:04;11.57;;;5.90;;
74630;SDS011;63138;55.082;38.804;2023-04-25T09:33:29;6.93;;;6.18;;
74630;SDS011;63138;55.082;38.804;2023-04-25T09:36:05;8.60;;;5.40;;
74630;SDS011;63138;55.082;38.804;2023-04-25T09:38:59;8.60;;;5.30;;
74630;SDS011;63138;55.082;38.804;2023-04-25T09:41:28;7.28;;;5.05;;
74630;SDS011;63138;55.082;38.804;2023-04-25T09:43:58;7.75;;;4.60;;
74630;SDS011;63138;55.082;38.804;2023-04-25T09:46:34;7.15;;;5.20;;
74630;SDS011;63138;55.082;38.804;2023-04-25T09:49:08;6.10;;;4.40;;
74630;SDS011;63138;55.082;38.804;2023-04-25T09:52:02;8.18;;;5.05;;
74630;SDS011;63138;55.082;38.804;2023-04-25T09:54:36;6.18;;;5.22;;
74630;SDS011;63138;55.082;38.804;2023-04-25T10:00:08;7.05;;;5.40;;
74630;SDS011;63138;55.082;38.804;2023-04-25T10:06:06;8.77;;;5.68;;
74630;SDS011;63138;55.082;38.804;2023-04-25T10:08:36;7.47;;;5.55;;
74630;SDS011;63138;55.082;38.804;2023-04-25T10:11:07;8.02;;;5.80;;
74630;SDS011;63138;55.082;38.804;2023-04-25T10:13:36;8.35;;;4.25;;
74630;SDS011;63138;55.082;38.804;2023-04-25T10:16:03;10.27;;;5.37;;
74630;SDS011;63138;55.082;38.804;2023-04-25T10:18:55;7.13;;;5.20;;
74630;SDS011;63138;55.082;38.804;2023-04-25T10:21:23;9.57;;;5.32;;
74630;SDS011;63138;55.082;38.804;2023-04-25T10:23:55;8.55;;;5.90;;
74630;SDS011;63138;55.082;38.804;2023-04-25T10:26:27;7.30;;;5.68;;
74630;SDS011;63138;55.082;38.804;2023-04-25T10:28:58;9.23;;;5.47;;
74630;SDS011;63138;55.082;38.804;2023-04-25T10:34:19;9.13;;;6.13;;
74630;SDS011;63138;55.082;38.804;2023-04-25T10:36:52;9.32;;;5.60;;
74630;SDS011;63138;55.082;38.804;2023-04-25T10:39:23;9.48;;;5.88;;
74630;SDS011;63138;55.082;38.804;2023-04-25T10:41:58;7.97;;;5.30;;
74630;SDS011;63138;55.082;38.804;2023-04-25T10:44:31;8.85;;;5.40;;
74630;SDS011;63138;55.082;38.804;2023-04-25T10:47:01;7.03;;;4.80;;
74630;SDS011;63138;55.082;38.804;2023-04-25T10:53:17;5.22;;;4.00;;
74630;SDS011;63138;55.082;38.804;2023-04-25T10:55:50;9.07;;;5.07;;
74630;SDS011;63138;55.082;38.804;2023-04-25T10:58:21;6.55;;;4.65;;
74630;SDS011;63138;55.082;38.804;2023-04-25T11:00:50;9.80;;;4.97;;
74630;SDS011;63138;55.082;38.804;2023-04-25T11:03:16;7.53;;;4.97;;
74630;SDS011;63138;55.082;38.804;2023-04-25T11:05:42;6.35;;;5.07;;
74630;SDS011;63138;55.082;38.804;2023-04-25T11:08:17;7.60;;;5.10;;
74630;SDS011;63138;55.082;38.804;2023-04-25T11:11:00;7.97;;;5.40;;
74630;SDS011;63138;55.082;38.804;2023-04-25T11:13:30;9.02;;;4.95;;
74630;SDS011;63138;55.082;38.804;2023-04-25T11:15:57;9.13;;;5.07;;
74630;SDS011;63138;55.082;38.804;2023-04-25T11:18:49;10.52;;;4.55;;
74630;SDS011;63138;55.082;38.804;2023-04-25T11:21:16;6.53;;;4.93;;
74630;SDS011;63138;55.082;38.804;2023-04-25T11:23:44;8.70;;;5.10;;
74630;SDS011;63138;55.082;38.804;2023-04-25T11:26:13;10.27;;;4.60;;
74630;SDS011;63138;55.082;38.804;2023-04-25T11:28:40;10.18;;;4.80;;
74630;SDS011;63138;55.082;38.804;2023-04-25T11:31:10;6.97;;;4.45;;
74630;SDS011;63138;55.082;38.804;2023-04-25T11:33:36;8.47;;;4.30;;
74630;SDS011;63138;55.082;38.804;2023-04-25T11:36:02;6.57;;;4.55;;
74630;SDS011;63138;55.082;38.804;2023-04-25T11:38:28;5.28;;;3.90;;
74630;SDS011;63138;55.082;38.804;2023-04-25T11:40:55;10.25;;;4.20;;
74630;SDS011;63138;55.082;38.804;2023-04-25T11:43:22;11.10;;;3.90;;
74630;SDS011;63138;55.082;38.804;2023-04-25T11:46:21;10.85;;;4.10;;
74630;SDS011;63138;55.082;38.804;2023-04-25T11:48:49;7.03;;;4.38;;
74630;SDS011;63138;55.082;38.804;2023-04-25T11:51:17;8.20;;;3.95;;
74630;SDS011;63138;55.082;38.804;2023-04-25T11:53:46;7.20;;;3.58;;
74630;SDS011;63138;55.082;38.804;2023-04-25T11:56:14;5.73;;;4.00;;
74630;SDS011;63138;55.082;38.804;2023-04-25T12:01:31;9.23;;;5.30;;
74630;SDS011;63138;55.082;38.804;2023-04-25T12:04:09;7.88;;;5.53;;
74630;SDS011;63138;55.082;38.804;2023-04-25T12:06:47;8.52;;;5.60;;
74630;SDS011;63138;55.082;38.804;2023-04-25T12:09:21;10.70;;;5.97;;
74630;SDS011;63138;55.082;38.804;2023-04-25T12:12:19;7.97;;;5.72;;
74630;SDS011;63138;55.082;38.804;2023-04-25T12:14:49;11.23;;;5.70;;
74630;SDS011;63138;55.082;38.804;2023-04-25T12:17:16;10.93;;;5.95;;
74630;SDS011;63138;55.082;38.804;2023-04-25T12:19:42;7.63;;;5.30;;
74630;SDS011;63138;55.082;38.804;2023-04-25T12:22:19;7.90;;;5.60;;
74630;SDS011;63138;55.082;38.804;2023-04-25T12:24:47;9.02;;;6.00;;
74630;SDS011;63138;55.082;38.804;2023-04-25T12:27:14;9.00;;;5.07;;
74630;SDS011;63138;55.082;38.804;2023-04-25T12:29:49;6.60;;;3.58;;
74630;SDS011;63138;55.082;38.804;2023-04-25T12:32:17;7.38;;;4.00;;
74630;SDS011;63138;55.082;38.804;2023-04-25T12:34:46;9.60;;;4.60;;
74630;SDS011;63138;55.082;38.804;2023-04-25T12:37:13;7.80;;;4.40;;
74630;SDS011;63138;55.082;38.804;2023-04-25T12:39:39;6.53;;;3.60;;
74630;SDS011;63138;55.082;38.804;2023-04-25T12:42:08;7.43;;;3.05;;
74630;SDS011;63138;55.082;38.804;2023-04-25T12:44:57;6.88;;;3.17;;
74630;SDS011;63138;55.082;38.804;2023-04-25T12:47:23;8.07;;;3.57;;
74630;SDS011;63138;55.082;38.804;2023-04-25T12:49:49;6.07;;;2.47;;
74630;SDS011;63138;55.082;38.804;2023-04-25T12:52:16;4.72;;;2.60;;
74630;SDS011;63138;55.082;38.804;2023-04-25T12:54:43;6.17;;;2.80;;
74630;SDS011;63138;55.082;38.804;2023-04-25T12:57:09;8.27;;;2.73;;
74630;SDS011;63138;55.082;38.804;2023-04-25T12:59:37;9.30;;;3.22;;
74630;SDS011;63138;55.082;38.804;2023-04-25T13:02:03;7.75;;;3.15;;
74630;SDS011;63138;55.082;38.804;2023-04-25T13:04:48;10.38;;;3.70;;
74630;SDS011;63138;55.082;38.804;2023-04-25T13:07:14;8.70;;;3.00;;
74630;SDS011;63138;55.082;38.804;2023-04-25T13:09:42;8.30;;;3.37;;
74630;SDS011;63138;55.082;38.804;2023-04-25T13:12:08;4.82;;;2.90;;
74630;SDS011;63138;55.082;38.804;2023-04-25T13:14:35;10.77;;;3.30;;
74630;SDS011;63138;55.082;38.804;2023-04-25T13:17:01;9.75;;;3.45;;
74630;SDS011;63138;55.082;38.804;2023-04-25T13:19:29;7.10;;;2.40;;
74630;SDS011;63138;55.082;38.804;2023-04-25T13:21:55;4.20;;;2.40;;
74630;SDS011;63138;55.082;38.804;2023-04-25T13:24:20;3.80;;;2.65;;
74630;SDS011;63138;55.082;38.804;2023-04-25T13:26:47;5.70;;;3.13;;
74630;SDS011;63138;55.082;38.804;2023-04-25T13:29:14;5.37;;;2.80;;
74630;SDS011;63138;55.082;38.804;2023-04-25T13:31:40;5.15;;;2.45;;
74630;SDS011;63138;55.082;38.804;2023-04-25T13:34:07;3.88;;;2.50;;
74630;SDS011;63138;55.082;38.804;2023-04-25T13:36:33;4.53;;;2.65;;
74630;SDS011;63138;55.082;38.804;2023-04-25T13:39:01;7.77;;;3.00;;
74630;SDS011;63138;55.082;38.804;2023-04-25T13:41:29;6.65;;;3.08;;
74630;SDS011;63138;55.082;38.804;2023-04-25T13:46:54;10.52;;;4.28;;
74630;SDS011;63138;55.082;38.804;2023-04-25T13:49:21;6.78;;;3.10;;
74630;SDS011;63138;55.082;38.804;2023-04-25T13:51:48;8.87;;;3.10;;
74630;SDS011;63138;55.082;38.804;2023-04-25T13:54:14;11.77;;;3.65;;
74630;SDS011;63138;55.082;38.804;2023-04-25T13:56:41;7.03;;;3.10;;
74630;SDS011;63138;55.082;38.804;2023-04-25T13:59:08;12.20;;;3.30;;
74630;SDS011;63138;55.082;38.804;2023-04-25T14:01:35;8.52;;;3.42;;
74630;SDS011;63138;55.082;38.804;2023-04-25T14:04:01;7.13;;;3.30;;
74630;SDS011;63138;55.082;38.804;2023-04-25T14:06:30;7.47;;;3.25;;
74630;SDS011;63138;55.082;38.804;2023-04-25T14:08:57;7.40;;;3.30;;
74630;SDS011;63138;55.082;38.804;2023-04-25T14:11:24;5.30;;;3.65;;
74630;SDS011;63138;55.082;38.804;2023-04-25T14:13:51;4.43;;;2.65;;
74630;SDS011;63138;55.082;38.804;2023-04-25T14:16:17;10.47;;;3.87;;
74630;SDS011;63138;55.082;38.804;2023-04-25T14:18:43;6.35;;;3.17;;
74630;SDS011;63138;55.082;38.804;2023-04-25T14:21:09;6.50;;;3.28;;
74630;SDS011;63138;55.082;38.804;2023-04-25T14:23:38;6.67;;;3.53;;
74630;SDS011;63138;55.082;38.804;2023-04-25T14:26:04;5.10;;;2.95;;
74630;SDS011;63138;55.082;38.804;2023-04-25T14:28:31;9.48;;;3.42;;
74630;SDS011;63138;55.082;38.804;2023-04-25T14:30:57;5.97;;;3.25;;
74630;SDS011;63138;55.082;38.804;2023-04-25T14:33:25;7.50;;;3.60;;
74630;SDS011;63138;55.082;38.804;2023-04-25T14:35:55;7.37;;;2.97;;
74630;SDS011;63138;55.082;38.804;2023-04-25T14:38:46;7.95;;;2.95;;
74630;SDS011;63138;55.082;38.804;2023-04-25T14:41:13;8.82;;;3.13;;
74630;SDS011;63138;55.082;38.804;2023-04-25T14:43:40;6.15;;;2.88;;
74630;SDS011;63138;55.082;38.804;2023-04-25T14:46:08;5.10;;;2.90;;
74630;SDS011;63138;55.082;38.804;2023-04-25T14:48:36;9.53;;;3.17;;
74630;SDS011;63138;55.082;38.804;2023-04-25T14:51:03;8.48;;;3.03;;
74630;SDS011;63138;55.082;38.804;2023-04-25T14:53:30;5.90;;;2.90;;
74630;SDS011;63138;55.082;38.804;2023-04-25T14:55:57;8.27;;;3.00;;
74630;SDS011;63138;55.082;38.804;2023-04-25T14:58:23;6.88;;;2.88;;
74630;SDS011;63138;55.082;38.804;2023-04-25T15:00:49;10.07;;;3.20;;
74630;SDS011;63138;55.082;38.804;2023-04-25T15:03:17;4.72;;;2.67;;
74630;SDS011;63138;55.082;38.804;2023-04-25T15:05:45;6.35;;;3.10;;
74630;SDS011;63138;55.082;38.804;2023-04-25T15:08:11;6.65;;;2.83;;
74630;SDS011;63138;55.082;38.804;2023-04-25T15:10:38;5.00;;;2.45;;
74630;SDS011;63138;55.082;38.804;2023-04-25T15:13:04;7.20;;;2.70;;
74630;SDS011;63138;55.082;38.804;2023-04-25T15:15:31;6.85;;;3.50;;
74630;SDS011;63138;55.082;38.804;2023-04-25T15:17:57;5.55;;;2.55;;
74630;SDS011;63138;55.082;38.804;2023-04-25T15:20:23;8.45;;;3.78;;
74630;SDS011;63138;55.082;38.804;2023-04-25T15:22:50;8.75;;;3.83;;
74630;SDS011;63138;55.082;38.804;2023-04-25T15:25:16;9.17;;;3.50;;
74630;SDS011;63138;55.082;38.804;2023-04-25T15:28:08;8.30;;;3.45;;
74630;SDS011;63138;55.082;38.804;2023-04-25T15:30:34;11.20;;;3.35;;
74630;SDS011;63138;55.082;38.804;2023-04-25T15:33:01;6.47;;;3.35;;
74630;SDS011;63138;55.082;38.804;2023-04-25T15:35:30;10.43;;;3.63;;
74630;SDS011;63138;55.082;38.804;2023-04-25T15:37:56;10.02;;;3.35;;
74630;SDS011;63138;55.082;38.804;2023-04-25T15:40:23;7.47;;;2.85;;